Daily Weather Data

ICAR-Vivekananda Parvatiya Krishi Anusandhan Sansthan, Almora

Month:    January  to February 2018

 Date

Max. Temp. (0 C)

Min. Temp. (0 C)

Rainfall (mm)

Max. RH(%) Min. RH(%) Wind Speed (mt/s) Wind Dir. Dew Point (0 C)
01/01/2018 13.4 4 0 66 58 0.3 152 0.6
02/01/2018 14.0 2.9 0 72 65 0.08 169 0.7
03/01/2018 16.1 3.4 0 64.6 58.5 0.03 175 0.2
04/01/2018 15.9 4.6 0 51.3 45.7 0.10 163 1.9
05/01/2018 15.6 3.9 0 47.1 39.8 0.05 148 -4.2
06/01/2018 14.3 2.7 0 46.7 40.7 0.05 149 -4.9
07/01/2018 14.1 2.1 0 55.2 48.8 0.06 165.7 -3.1
08/01/2018 16.8 4.2 0 49.8 43.7 0.07 169.4 -3.4
09/01/2018 18.5 5.1 0 45.3 39.8 0.06 157.3 -3.4
10/01/2018 20.5 7.5 0 37.0 32.0 0.10 166.4 -4.3
11/01/2018 21.6 8.5 0 30.9 25.6 0.15 152 -5.8
12/01/2018 21.2 10.2 0 33.4 27.3 0.02 186 -3.8
13/01/2018 15.8 3.9 0 55.2 48.4 0.04 169 0.42
14/01/2018 17.9 5.2 0 65.4 54.8 0.02 163 1.6
15/01/2018 18.1 4.6 0 62 55 0.09 154 0.87
16/01/2018 20.4 7.1 0 45 39 0.10 169 -1.9
17/01/2018 17.9 4.7 0 66 58 0.07 175 1.9
18/01/2018 20.9 4.9 0 67 59 0.03 147 1.9
19/01/2018 22.0 7.7 0 39 32 0.14 177 -2.8
20/01/2018 21.2 7.5 0 35 29 0.02 166 -4.4
21/01/2018 19.3 7.1 0 37 31 0.08 164 -3.9
22/01/2018 18.7 5.4 0 67 59 0.11 163 2.4
23/01/2018 19.6 6.1 0 69.7 63.7 0.22 153 3.8
24/01/2018 11.0 1.1 11.6 87 81 0.36 145 3.3
25/01/2018 15.1 3.3 0 84 77 0.07 174 3.2
26/01/2018 14.6 2.0 0 82 75 0.07 172 2.07
27/01/2018 14.5 2.6 0 68 58 0.13 167 0.09
28/01/2018 16.7 3.9 0 51 44 0.25 159 -2.8
29/01/2018 18.1 5.5 0 40 34 0.14 165 -4.4
30/01/2018 19.2 7.6 0 37 32 0.46 152 -3.5
31/01/2018 20.3 8.6 0 41 35.9 0.21 155 -0.58
01/02/2018 19.9 9.1 0 53.3 46 0.3 174 1.8
02/02/2018 19.2 8.3 0 47.7 41.0 0.30 157 13.1
03/02/2018 16.9 6.7 0 59 53 0.08 135 2.0
04/02/2018 19.3 6.2 0 65 58 0.11 134 1.9
05/02/2018 19.0 7.9 0 47 38 0.07 149 -1.64
06/02/2018 18.9 10.4 0 41.8 34.2 0.05 188 -1.03
07/02/2018 19.7 7.8 0 49.4 42.2 0.06 136 -0.16
08/02/2018 19.9 4.5 0 58.4 49.8 0.1 169 -0.16
09/02/2018 17.8 3.9 0 44.6 38.6 0.1 163 -3.8
10/02/2018 17.3 4.0 0 42.9 36 0.1 156 -4.7
11/02/2018 19.5 7.1 0 37 31 0.17 110 -4.7
12/02/2018 7.0 5.8 2.0 54 48 0.3 155 -0.11
13/02/2018 15.5 3.8 2.8 92 87 0.14 135 5.1
14/02/2018 17.9 4.0 0 73.8 65.9 0.2 128.3 2.3
15/02/2018 21.0 6.8 0 60.8 53.4 0.06 131.4 2.3
16/02/2018 21.3 8.3 0 57.1 49.2 0.12 165.5 3.35
17/02/2018 18.9 7.8 0 70 60 0.22 173 4.9
18/02/2018 19.4 6.4 0 64 54 0.3 162 2.5
19/02/2018 20.6 7 0 62 55 0.14 141 2.9
20/02/2018 20.5 8.2 0 57 51 0.01 162 3.2